メインページ
METAR-TAF:

METAR-TAF

空港 :

Fort Knox, ケンタッキー州, アメリカ合衆国

緯度: 37-54N, 経度: 085-58W, 海抜: 230m

現時点の気象観測

当レポートは31分前の00:56(UTC)に作成
北/北東の風 5kt
気温 21°C
湿度 60%
気圧 1019 hPa
視程: 16.1km
晴天

METAR: KFTK 250056Z AUTO 03005KT 10SM CLR 21/13 A3010 RMK AO2 SLP192 T02120131

時間: 21:27 (01:27 UTC)

予報

当レポートは27分前の01:00(UTC)に作成
予報は25日の 01時(UTC)から 26日の 07時(UTC)まで有効
東/北東の風 6kt
視程10km以上
高度3000ftの雲はほとんどない
高度15000ftの雲は散在している
25日の 11時(UTC)から 25日の 12時(UTC)まで徐々に
の風 6kt
視程10km以上
高度2500ftの千切れ雲あり
高度4000ftの曇り
25日の 18時(UTC)から 25日の 19時(UTC)まで徐々に
東/南東の風 9kt
視程: 6000m
高度1500ftの千切れ雲あり
高度2500ftの曇り
弱いにわか雨
26日の 04時(UTC)から 26日の 05時(UTC)まで徐々に
南東の風 9kt
視程10km以上
高度1000ftの曇り

TAF: KFTK 250100Z 2501/2607 06006KT 9999 FEW030 SCT150 QNH3001INS BECMG 2511/2512 09006KT 9999 BKN025 OVC040 QNH2998INS BECMG 2518/2519 12009KT 6000 -SHRA BKN015 OVC025 QNH2995INS BECMG 2604/2605 13009KT 9999 NSW OVC010 QNH2994INS TX27/2520Z TN15/2510Z

4,000以上の空港の気象観測と天気予報(METAR報とTAF報)

利用可能な観測所は地図上に黄色い丸と赤い丸で示す。

丸の上にカーソルを重ねると観測所名を参照できる。

次にクリックすると気象観測と天気予報を参照できる。

マップの切り替え:黒色「×」印の緑ボタンをクリックして拡大、「-」印の緑ボタンをクリックして縮小、緑色の三角印をクリックして隣りの地図に切り替え


METAR-TAF: